sensor_id;sensor_type;location;lat;lon;timestamp;P1;durP1;ratioP1;P2;durP2;ratioP2
83288;SDS011;73193;50.866;5.420;2024-01-15T00:00:14;27.10;;;12.27;;
83288;SDS011;73193;50.866;5.420;2024-01-15T00:01:46;24.40;;;8.82;;
83288;SDS011;73193;50.866;5.420;2024-01-15T00:03:16;28.30;;;10.27;;
83288;SDS011;73193;50.866;5.420;2024-01-15T00:04:47;26.08;;;10.13;;
83288;SDS011;73193;50.866;5.420;2024-01-15T00:06:18;24.63;;;9.00;;
83288;SDS011;73193;50.866;5.420;2024-01-15T00:07:48;25.20;;;9.07;;
83288;SDS011;73193;50.866;5.420;2024-01-15T00:09:19;25.80;;;9.95;;
83288;SDS011;73193;50.866;5.420;2024-01-15T00:10:50;29.52;;;10.60;;
83288;SDS011;73193;50.866;5.420;2024-01-15T00:12:20;23.50;;;9.10;;
83288;SDS011;73193;50.866;5.420;2024-01-15T00:13:51;19.90;;;9.05;;
83288;SDS011;73193;50.866;5.420;2024-01-15T00:15:22;26.17;;;9.27;;
83288;SDS011;73193;50.866;5.420;2024-01-15T00:16:53;29.85;;;11.18;;
83288;SDS011;73193;50.866;5.420;2024-01-15T00:18:25;24.52;;;10.43;;
83288;SDS011;73193;50.866;5.420;2024-01-15T00:19:55;29.13;;;11.18;;
83288;SDS011;73193;50.866;5.420;2024-01-15T00:21:26;25.90;;;10.57;;
83288;SDS011;73193;50.866;5.420;2024-01-15T00:22:57;29.55;;;10.50;;
83288;SDS011;73193;50.866;5.420;2024-01-15T00:24:28;27.23;;;9.43;;
83288;SDS011;73193;50.866;5.420;2024-01-15T00:25:59;26.48;;;10.05;;
83288;SDS011;73193;50.866;5.420;2024-01-15T00:27:30;23.55;;;9.65;;
83288;SDS011;73193;50.866;5.420;2024-01-15T00:29:01;19.90;;;8.15;;
83288;SDS011;73193;50.866;5.420;2024-01-15T00:30:33;19.38;;;7.43;;
83288;SDS011;73193;50.866;5.420;2024-01-15T00:32:03;26.73;;;10.70;;
83288;SDS011;73193;50.866;5.420;2024-01-15T00:33:34;27.65;;;11.07;;
83288;SDS011;73193;50.866;5.420;2024-01-15T00:35:05;27.08;;;9.93;;
83288;SDS011;73193;50.866;5.420;2024-01-15T00:36:36;22.67;;;8.85;;
83288;SDS011;73193;50.866;5.420;2024-01-15T00:38:07;29.00;;;11.25;;
83288;SDS011;73193;50.866;5.420;2024-01-15T00:39:38;25.77;;;10.40;;
83288;SDS011;73193;50.866;5.420;2024-01-15T00:41:08;31.80;;;11.35;;
83288;SDS011;73193;50.866;5.420;2024-01-15T00:42:39;29.83;;;12.25;;
83288;SDS011;73193;50.866;5.420;2024-01-15T00:44:09;29.52;;;10.93;;
83288;SDS011;73193;50.866;5.420;2024-01-15T00:45:40;23.48;;;9.80;;
83288;SDS011;73193;50.866;5.420;2024-01-15T00:47:11;25.77;;;9.73;;
83288;SDS011;73193;50.866;5.420;2024-01-15T00:48:42;26.50;;;10.25;;
83288;SDS011;73193;50.866;5.420;2024-01-15T00:50:12;29.00;;;10.80;;
83288;SDS011;73193;50.866;5.420;2024-01-15T00:51:43;30.38;;;11.68;;
83288;SDS011;73193;50.866;5.420;2024-01-15T00:53:14;25.98;;;9.55;;
83288;SDS011;73193;50.866;5.420;2024-01-15T00:54:44;30.77;;;10.93;;
83288;SDS011;73193;50.866;5.420;2024-01-15T00:56:15;24.20;;;10.00;;
83288;SDS011;73193;50.866;5.420;2024-01-15T00:57:45;28.40;;;11.55;;
83288;SDS011;73193;50.866;5.420;2024-01-15T00:59:16;32.47;;;12.73;;
83288;SDS011;73193;50.866;5.420;2024-01-15T01:00:47;28.38;;;9.68;;
83288;SDS011;73193;50.866;5.420;2024-01-15T01:02:18;33.65;;;12.20;;
83288;SDS011;73193;50.866;5.420;2024-01-15T01:03:49;28.85;;;11.95;;
83288;SDS011;73193;50.866;5.420;2024-01-15T01:05:19;33.88;;;11.65;;
83288;SDS011;73193;50.866;5.420;2024-01-15T01:06:50;29.95;;;11.93;;
83288;SDS011;73193;50.866;5.420;2024-01-15T01:08:21;34.47;;;12.88;;
83288;SDS011;73193;50.866;5.420;2024-01-15T01:09:51;22.42;;;9.57;;
83288;SDS011;73193;50.866;5.420;2024-01-15T01:11:22;30.00;;;11.00;;
83288;SDS011;73193;50.866;5.420;2024-01-15T01:12:53;26.67;;;9.63;;
83288;SDS011;73193;50.866;5.420;2024-01-15T01:14:23;27.23;;;9.27;;
83288;SDS011;73193;50.866;5.420;2024-01-15T01:15:54;29.27;;;10.75;;
83288;SDS011;73193;50.866;5.420;2024-01-15T01:17:25;27.02;;;10.25;;
83288;SDS011;73193;50.866;5.420;2024-01-15T01:18:55;22.13;;;9.40;;
83288;SDS011;73193;50.866;5.420;2024-01-15T01:20:26;25.38;;;9.73;;
83288;SDS011;73193;50.866;5.420;2024-01-15T01:21:57;27.33;;;10.50;;
83288;SDS011;73193;50.866;5.420;2024-01-15T01:23:27;21.98;;;8.60;;
83288;SDS011;73193;50.866;5.420;2024-01-15T01:24:58;22.33;;;8.90;;
83288;SDS011;73193;50.866;5.420;2024-01-15T01:26:29;29.48;;;11.60;;
83288;SDS011;73193;50.866;5.420;2024-01-15T01:28:00;29.95;;;11.27;;
83288;SDS011;73193;50.866;5.420;2024-01-15T01:29:30;22.10;;;9.05;;
83288;SDS011;73193;50.866;5.420;2024-01-15T01:31:01;29.15;;;9.38;;
83288;SDS011;73193;50.866;5.420;2024-01-15T01:32:32;25.77;;;9.82;;
83288;SDS011;73193;50.866;5.420;2024-01-15T01:34:02;22.27;;;8.50;;
83288;SDS011;73193;50.866;5.420;2024-01-15T01:35:33;32.50;;;13.32;;
83288;SDS011;73193;50.866;5.420;2024-01-15T01:37:04;29.15;;;10.95;;
83288;SDS011;73193;50.866;5.420;2024-01-15T01:38:35;29.48;;;11.82;;
83288;SDS011;73193;50.866;5.420;2024-01-15T01:40:06;29.55;;;11.82;;
83288;SDS011;73193;50.866;5.420;2024-01-15T01:41:38;30.33;;;11.52;;
83288;SDS011;73193;50.866;5.420;2024-01-15T01:44:40;22.83;;;9.35;;
83288;SDS011;73193;50.866;5.420;2024-01-15T01:46:11;27.90;;;10.48;;
83288;SDS011;73193;50.866;5.420;2024-01-15T01:47:42;27.40;;;10.75;;
83288;SDS011;73193;50.866;5.420;2024-01-15T01:49:12;21.20;;;10.07;;
83288;SDS011;73193;50.866;5.420;2024-01-15T01:50:44;26.55;;;10.15;;
83288;SDS011;73193;50.866;5.420;2024-01-15T01:52:14;26.95;;;10.15;;
83288;SDS011;73193;50.866;5.420;2024-01-15T01:53:45;27.13;;;9.82;;
83288;SDS011;73193;50.866;5.420;2024-01-15T01:55:16;21.27;;;8.85;;
83288;SDS011;73193;50.866;5.420;2024-01-15T01:56:48;23.20;;;9.32;;
83288;SDS011;73193;50.866;5.420;2024-01-15T01:58:20;18.10;;;7.57;;
83288;SDS011;73193;50.866;5.420;2024-01-15T01:59:51;29.50;;;10.02;;
83288;SDS011;73193;50.866;5.420;2024-01-15T02:01:22;27.70;;;11.07;;
83288;SDS011;73193;50.866;5.420;2024-01-15T02:02:53;20.95;;;8.52;;
83288;SDS011;73193;50.866;5.420;2024-01-15T02:04:24;27.35;;;10.60;;
83288;SDS011;73193;50.866;5.420;2024-01-15T02:05:55;27.48;;;10.18;;
83288;SDS011;73193;50.866;5.420;2024-01-15T02:07:26;26.25;;;10.32;;
83288;SDS011;73193;50.866;5.420;2024-01-15T02:08:57;25.60;;;9.80;;
83288;SDS011;73193;50.866;5.420;2024-01-15T02:10:28;23.90;;;9.00;;
83288;SDS011;73193;50.866;5.420;2024-01-15T02:11:59;27.40;;;11.35;;
83288;SDS011;73193;50.866;5.420;2024-01-15T02:13:30;25.40;;;10.20;;
83288;SDS011;73193;50.866;5.420;2024-01-15T02:15:01;27.20;;;10.18;;
83288;SDS011;73193;50.866;5.420;2024-01-15T02:16:31;24.05;;;9.95;;
83288;SDS011;73193;50.866;5.420;2024-01-15T02:18:05;23.17;;;8.05;;
83288;SDS011;73193;50.866;5.420;2024-01-15T02:19:37;25.88;;;9.85;;
83288;SDS011;73193;50.866;5.420;2024-01-15T02:21:10;23.60;;;9.80;;
83288;SDS011;73193;50.866;5.420;2024-01-15T02:24:12;25.20;;;9.55;;
83288;SDS011;73193;50.866;5.420;2024-01-15T02:25:44;27.67;;;10.18;;
83288;SDS011;73193;50.866;5.420;2024-01-15T02:27:15;22.17;;;9.85;;
83288;SDS011;73193;50.866;5.420;2024-01-15T02:28:47;14.65;;;6.03;;
83288;SDS011;73193;50.866;5.420;2024-01-15T02:30:18;22.42;;;9.90;;
83288;SDS011;73193;50.866;5.420;2024-01-15T02:31:49;22.02;;;9.77;;
83288;SDS011;73193;50.866;5.420;2024-01-15T02:33:19;22.42;;;9.27;;
83288;SDS011;73193;50.866;5.420;2024-01-15T02:34:50;24.15;;;9.77;;
83288;SDS011;73193;50.866;5.420;2024-01-15T02:36:21;17.77;;;7.25;;
83288;SDS011;73193;50.866;5.420;2024-01-15T02:37:51;25.33;;;9.70;;
83288;SDS011;73193;50.866;5.420;2024-01-15T02:39:22;22.85;;;9.52;;
83288;SDS011;73193;50.866;5.420;2024-01-15T02:40:53;17.38;;;7.07;;
83288;SDS011;73193;50.866;5.420;2024-01-15T02:42:23;21.75;;;9.48;;
83288;SDS011;73193;50.866;5.420;2024-01-15T02:43:56;25.10;;;9.10;;
83288;SDS011;73193;50.866;5.420;2024-01-15T02:45:27;21.58;;;9.18;;
83288;SDS011;73193;50.866;5.420;2024-01-15T02:46:58;20.60;;;8.25;;
83288;SDS011;73193;50.866;5.420;2024-01-15T02:48:28;20.80;;;9.10;;
83288;SDS011;73193;50.866;5.420;2024-01-15T02:49:59;19.77;;;8.60;;
83288;SDS011;73193;50.866;5.420;2024-01-15T02:51:29;19.85;;;8.32;;
83288;SDS011;73193;50.866;5.420;2024-01-15T02:53:00;14.98;;;6.72;;
83288;SDS011;73193;50.866;5.420;2024-01-15T02:54:31;18.73;;;7.85;;
83288;SDS011;73193;50.866;5.420;2024-01-15T02:56:01;17.08;;;6.88;;
83288;SDS011;73193;50.866;5.420;2024-01-15T02:57:32;13.40;;;6.90;;
83288;SDS011;73193;50.866;5.420;2024-01-15T02:59:03;18.60;;;7.95;;
83288;SDS011;73193;50.866;5.420;2024-01-15T03:00:34;20.52;;;8.75;;
83288;SDS011;73193;50.866;5.420;2024-01-15T03:02:04;20.40;;;7.80;;
83288;SDS011;73193;50.866;5.420;2024-01-15T03:03:35;20.60;;;8.77;;
83288;SDS011;73193;50.866;5.420;2024-01-15T03:05:06;12.45;;;6.28;;
83288;SDS011;73193;50.866;5.420;2024-01-15T03:08:08;15.70;;;7.43;;
83288;SDS011;73193;50.866;5.420;2024-01-15T03:09:38;18.00;;;7.28;;
83288;SDS011;73193;50.866;5.420;2024-01-15T03:11:09;19.80;;;8.07;;
83288;SDS011;73193;50.866;5.420;2024-01-15T03:12:40;16.33;;;8.10;;
83288;SDS011;73193;50.866;5.420;2024-01-15T03:14:10;19.65;;;7.95;;
83288;SDS011;73193;50.866;5.420;2024-01-15T03:15:42;15.13;;;6.95;;
83288;SDS011;73193;50.866;5.420;2024-01-15T03:17:13;14.23;;;6.90;;
83288;SDS011;73193;50.866;5.420;2024-01-15T03:18:43;15.82;;;7.28;;
83288;SDS011;73193;50.866;5.420;2024-01-15T03:20:14;21.27;;;9.15;;
83288;SDS011;73193;50.866;5.420;2024-01-15T03:21:45;13.32;;;6.60;;
83288;SDS011;73193;50.866;5.420;2024-01-15T03:23:15;14.20;;;7.15;;
83288;SDS011;73193;50.866;5.420;2024-01-15T03:24:46;16.80;;;7.63;;
83288;SDS011;73193;50.866;5.420;2024-01-15T03:26:17;19.02;;;7.63;;
83288;SDS011;73193;50.866;5.420;2024-01-15T03:27:47;14.95;;;7.30;;
83288;SDS011;73193;50.866;5.420;2024-01-15T03:29:18;19.30;;;7.78;;
83288;SDS011;73193;50.866;5.420;2024-01-15T03:30:49;15.00;;;7.65;;
83288;SDS011;73193;50.866;5.420;2024-01-15T03:32:19;17.70;;;8.05;;
83288;SDS011;73193;50.866;5.420;2024-01-15T03:33:50;24.27;;;8.85;;
83288;SDS011;73193;50.866;5.420;2024-01-15T03:35:21;17.67;;;5.55;;
83288;SDS011;73193;50.866;5.420;2024-01-15T03:36:51;15.35;;;6.07;;
83288;SDS011;73193;50.866;5.420;2024-01-15T03:38:23;18.58;;;8.57;;
83288;SDS011;73193;50.866;5.420;2024-01-15T03:39:53;16.50;;;8.07;;
83288;SDS011;73193;50.866;5.420;2024-01-15T03:41:24;17.98;;;8.02;;
83288;SDS011;73193;50.866;5.420;2024-01-15T03:42:54;18.83;;;8.50;;
83288;SDS011;73193;50.866;5.420;2024-01-15T03:44:25;14.32;;;7.53;;
83288;SDS011;73193;50.866;5.420;2024-01-15T03:45:56;17.02;;;7.95;;
83288;SDS011;73193;50.866;5.420;2024-01-15T03:47:26;19.67;;;8.10;;
83288;SDS011;73193;50.866;5.420;2024-01-15T03:48:57;21.73;;;8.15;;
83288;SDS011;73193;50.866;5.420;2024-01-15T03:50:28;15.15;;;6.93;;
83288;SDS011;73193;50.866;5.420;2024-01-15T03:51:58;17.42;;;7.82;;
83288;SDS011;73193;50.866;5.420;2024-01-15T03:53:29;16.38;;;6.65;;
83288;SDS011;73193;50.866;5.420;2024-01-15T03:55:00;20.77;;;7.53;;
83288;SDS011;73193;50.866;5.420;2024-01-15T03:56:30;14.90;;;6.35;;
83288;SDS011;73193;50.866;5.420;2024-01-15T03:58:01;14.98;;;7.03;;
83288;SDS011;73193;50.866;5.420;2024-01-15T03:59:31;21.52;;;8.30;;
83288;SDS011;73193;50.866;5.420;2024-01-15T04:01:02;15.40;;;6.85;;
83288;SDS011;73193;50.866;5.420;2024-01-15T04:02:33;18.10;;;7.13;;
83288;SDS011;73193;50.866;5.420;2024-01-15T04:04:03;17.65;;;7.47;;
83288;SDS011;73193;50.866;5.420;2024-01-15T04:05:34;10.93;;;4.90;;
83288;SDS011;73193;50.866;5.420;2024-01-15T04:07:05;19.27;;;7.72;;
83288;SDS011;73193;50.866;5.420;2024-01-15T04:08:36;16.73;;;7.75;;
83288;SDS011;73193;50.866;5.420;2024-01-15T04:10:06;12.50;;;5.85;;
83288;SDS011;73193;50.866;5.420;2024-01-15T04:11:37;15.40;;;7.78;;
83288;SDS011;73193;50.866;5.420;2024-01-15T04:13:08;16.95;;;7.55;;
83288;SDS011;73193;50.866;5.420;2024-01-15T04:14:39;18.88;;;7.78;;
83288;SDS011;73193;50.866;5.420;2024-01-15T04:16:09;17.13;;;8.38;;
83288;SDS011;73193;50.866;5.420;2024-01-15T04:17:40;15.18;;;7.13;;
83288;SDS011;73193;50.866;5.420;2024-01-15T04:19:11;16.27;;;6.97;;
83288;SDS011;73193;50.866;5.420;2024-01-15T04:20:41;16.40;;;7.63;;
83288;SDS011;73193;50.866;5.420;2024-01-15T04:22:12;15.50;;;7.25;;
83288;SDS011;73193;50.866;5.420;2024-01-15T04:23:42;17.63;;;7.28;;
83288;SDS011;73193;50.866;5.420;2024-01-15T04:25:14;17.75;;;7.82;;
83288;SDS011;73193;50.866;5.420;2024-01-15T04:26:45;18.25;;;7.38;;
83288;SDS011;73193;50.866;5.420;2024-01-15T04:28:15;17.42;;;7.30;;
83288;SDS011;73193;50.866;5.420;2024-01-15T04:29:46;11.32;;;5.68;;
83288;SDS011;73193;50.866;5.420;2024-01-15T04:31:20;15.35;;;7.30;;
83288;SDS011;73193;50.866;5.420;2024-01-15T04:32:52;13.90;;;6.75;;
83288;SDS011;73193;50.866;5.420;2024-01-15T04:34:23;18.38;;;7.72;;
83288;SDS011;73193;50.866;5.420;2024-01-15T04:35:54;16.63;;;7.18;;
83288;SDS011;73193;50.866;5.420;2024-01-15T04:37:24;13.20;;;5.82;;
83288;SDS011;73193;50.866;5.420;2024-01-15T04:38:55;14.10;;;7.25;;
83288;SDS011;73193;50.866;5.420;2024-01-15T04:40:25;15.85;;;6.68;;
83288;SDS011;73193;50.866;5.420;2024-01-15T04:41:57;15.82;;;6.82;;
83288;SDS011;73193;50.866;5.420;2024-01-15T04:43:28;22.08;;;7.63;;
83288;SDS011;73193;50.866;5.420;2024-01-15T04:44:59;18.15;;;7.50;;
83288;SDS011;73193;50.866;5.420;2024-01-15T04:46:29;15.15;;;7.03;;
83288;SDS011;73193;50.866;5.420;2024-01-15T04:48:00;8.68;;;3.72;;
83288;SDS011;73193;50.866;5.420;2024-01-15T04:49:31;13.35;;;5.60;;
83288;SDS011;73193;50.866;5.420;2024-01-15T04:51:05;14.25;;;6.65;;
83288;SDS011;73193;50.866;5.420;2024-01-15T04:52:36;14.27;;;6.07;;
83288;SDS011;73193;50.866;5.420;2024-01-15T04:54:07;14.85;;;6.10;;
83288;SDS011;73193;50.866;5.420;2024-01-15T04:55:37;8.93;;;4.43;;
83288;SDS011;73193;50.866;5.420;2024-01-15T04:57:09;13.20;;;5.82;;
83288;SDS011;73193;50.866;5.420;2024-01-15T04:58:39;16.08;;;7.43;;
83288;SDS011;73193;50.866;5.420;2024-01-15T05:00:10;16.80;;;7.28;;
83288;SDS011;73193;50.866;5.420;2024-01-15T05:01:42;10.10;;;4.88;;
83288;SDS011;73193;50.866;5.420;2024-01-15T05:03:13;16.98;;;6.68;;
83288;SDS011;73193;50.866;5.420;2024-01-15T05:04:43;16.98;;;7.15;;
83288;SDS011;73193;50.866;5.420;2024-01-15T05:06:14;17.60;;;7.13;;
83288;SDS011;73193;50.866;5.420;2024-01-15T05:07:44;19.13;;;7.72;;
83288;SDS011;73193;50.866;5.420;2024-01-15T05:09:15;16.98;;;7.53;;
83288;SDS011;73193;50.866;5.420;2024-01-15T05:10:46;15.02;;;7.45;;
83288;SDS011;73193;50.866;5.420;2024-01-15T05:12:17;16.70;;;6.80;;
83288;SDS011;73193;50.866;5.420;2024-01-15T05:13:48;16.10;;;7.35;;
83288;SDS011;73193;50.866;5.420;2024-01-15T05:15:18;15.68;;;7.28;;
83288;SDS011;73193;50.866;5.420;2024-01-15T05:16:49;20.35;;;7.47;;
83288;SDS011;73193;50.866;5.420;2024-01-15T05:18:20;20.38;;;7.80;;
83288;SDS011;73193;50.866;5.420;2024-01-15T05:19:51;16.65;;;7.90;;
83288;SDS011;73193;50.866;5.420;2024-01-15T05:21:22;19.08;;;7.82;;
83288;SDS011;73193;50.866;5.420;2024-01-15T05:22:52;22.20;;;8.13;;
83288;SDS011;73193;50.866;5.420;2024-01-15T05:24:23;20.55;;;7.85;;
83288;SDS011;73193;50.866;5.420;2024-01-15T05:25:54;22.15;;;8.38;;
83288;SDS011;73193;50.866;5.420;2024-01-15T05:27:24;15.40;;;6.70;;
83288;SDS011;73193;50.866;5.420;2024-01-15T05:28:55;19.85;;;9.80;;
83288;SDS011;73193;50.866;5.420;2024-01-15T05:30:26;17.90;;;7.53;;
83288;SDS011;73193;50.866;5.420;2024-01-15T05:31:56;14.13;;;6.18;;
83288;SDS011;73193;50.866;5.420;2024-01-15T05:33:27;22.08;;;9.30;;
83288;SDS011;73193;50.866;5.420;2024-01-15T05:34:57;18.30;;;7.75;;
83288;SDS011;73193;50.866;5.420;2024-01-15T05:36:28;18.92;;;9.15;;
83288;SDS011;73193;50.866;5.420;2024-01-15T05:37:59;21.38;;;8.80;;
83288;SDS011;73193;50.866;5.420;2024-01-15T05:39:29;20.58;;;10.43;;
83288;SDS011;73193;50.866;5.420;2024-01-15T05:41:00;14.52;;;6.85;;
83288;SDS011;73193;50.866;5.420;2024-01-15T05:42:31;19.40;;;8.02;;
83288;SDS011;73193;50.866;5.420;2024-01-15T05:44:02;19.60;;;8.98;;
83288;SDS011;73193;50.866;5.420;2024-01-15T05:45:32;21.67;;;9.20;;
83288;SDS011;73193;50.866;5.420;2024-01-15T05:47:04;18.67;;;8.95;;
83288;SDS011;73193;50.866;5.420;2024-01-15T05:48:35;21.70;;;9.07;;
83288;SDS011;73193;50.866;5.420;2024-01-15T05:50:06;22.10;;;10.18;;
83288;SDS011;73193;50.866;5.420;2024-01-15T05:51:37;24.20;;;10.20;;
83288;SDS011;73193;50.866;5.420;2024-01-15T05:53:07;22.70;;;10.00;;
83288;SDS011;73193;50.866;5.420;2024-01-15T05:54:38;20.77;;;10.15;;
83288;SDS011;73193;50.866;5.420;2024-01-15T05:56:09;23.08;;;9.70;;
83288;SDS011;73193;50.866;5.420;2024-01-15T05:57:40;21.13;;;9.73;;
83288;SDS011;73193;50.866;5.420;2024-01-15T05:59:11;18.35;;;6.55;;
83288;SDS011;73193;50.866;5.420;2024-01-15T06:00:41;18.48;;;8.55;;
83288;SDS011;73193;50.866;5.420;2024-01-15T06:02:12;16.10;;;7.22;;
83288;SDS011;73193;50.866;5.420;2024-01-15T06:03:43;17.80;;;8.93;;
83288;SDS011;73193;50.866;5.420;2024-01-15T06:05:13;20.42;;;8.48;;
83288;SDS011;73193;50.866;5.420;2024-01-15T06:06:44;24.70;;;9.10;;
83288;SDS011;73193;50.866;5.420;2024-01-15T06:08:15;20.40;;;10.77;;
83288;SDS011;73193;50.866;5.420;2024-01-15T06:09:45;23.63;;;10.05;;
83288;SDS011;73193;50.866;5.420;2024-01-15T06:11:16;24.65;;;10.27;;
83288;SDS011;73193;50.866;5.420;2024-01-15T06:12:47;19.08;;;9.38;;
83288;SDS011;73193;50.866;5.420;2024-01-15T06:14:17;18.08;;;7.75;;
83288;SDS011;73193;50.866;5.420;2024-01-15T06:15:48;26.52;;;9.65;;
83288;SDS011;73193;50.866;5.420;2024-01-15T06:17:18;18.33;;;8.77;;
83288;SDS011;73193;50.866;5.420;2024-01-15T06:18:49;19.77;;;8.73;;
83288;SDS011;73193;50.866;5.420;2024-01-15T06:20:20;21.70;;;10.48;;
83288;SDS011;73193;50.866;5.420;2024-01-15T06:21:51;26.05;;;10.40;;
83288;SDS011;73193;50.866;5.420;2024-01-15T06:23:21;22.50;;;10.18;;
83288;SDS011;73193;50.866;5.420;2024-01-15T06:24:52;18.30;;;8.65;;
83288;SDS011;73193;50.866;5.420;2024-01-15T06:26:23;21.92;;;9.85;;
83288;SDS011;73193;50.866;5.420;2024-01-15T06:27:53;23.60;;;11.02;;
83288;SDS011;73193;50.866;5.420;2024-01-15T06:29:25;16.45;;;6.43;;
83288;SDS011;73193;50.866;5.420;2024-01-15T06:30:56;21.42;;;9.52;;
83288;SDS011;73193;50.866;5.420;2024-01-15T06:33:58;24.63;;;9.40;;
83288;SDS011;73193;50.866;5.420;2024-01-15T06:35:29;19.77;;;9.00;;
83288;SDS011;73193;50.866;5.420;2024-01-15T06:37:00;19.05;;;9.20;;
83288;SDS011;73193;50.866;5.420;2024-01-15T06:38:30;19.92;;;9.30;;
83288;SDS011;73193;50.866;5.420;2024-01-15T06:40:01;17.65;;;7.97;;
83288;SDS011;73193;50.866;5.420;2024-01-15T06:41:33;21.50;;;9.18;;
83288;SDS011;73193;50.866;5.420;2024-01-15T06:43:03;18.65;;;8.90;;
83288;SDS011;73193;50.866;5.420;2024-01-15T06:44:34;21.38;;;9.02;;
83288;SDS011;73193;50.866;5.420;2024-01-15T06:46:05;15.18;;;7.68;;
83288;SDS011;73193;50.866;5.420;2024-01-15T06:47:35;19.08;;;8.93;;
83288;SDS011;73193;50.866;5.420;2024-01-15T06:49:06;23.20;;;9.07;;
83288;SDS011;73193;50.866;5.420;2024-01-15T06:50:36;19.77;;;8.35;;
83288;SDS011;73193;50.866;5.420;2024-01-15T06:52:07;20.17;;;9.63;;
83288;SDS011;73193;50.866;5.420;2024-01-15T06:53:38;15.13;;;6.63;;
83288;SDS011;73193;50.866;5.420;2024-01-15T06:55:08;15.93;;;7.15;;
83288;SDS011;73193;50.866;5.420;2024-01-15T06:56:39;12.45;;;5.45;;
83288;SDS011;73193;50.866;5.420;2024-01-15T06:58:10;11.73;;;5.68;;
83288;SDS011;73193;50.866;5.420;2024-01-15T06:59:40;15.10;;;7.63;;
83288;SDS011;73193;50.866;5.420;2024-01-15T07:01:11;12.27;;;6.05;;
83288;SDS011;73193;50.866;5.420;2024-01-15T07:02:42;10.50;;;5.18;;
83288;SDS011;73193;50.866;5.420;2024-01-15T07:04:12;13.10;;;6.20;;
83288;SDS011;73193;50.866;5.420;2024-01-15T07:05:43;12.43;;;5.82;;
83288;SDS011;73193;50.866;5.420;2024-01-15T07:07:14;15.35;;;6.40;;
83288;SDS011;73193;50.866;5.420;2024-01-15T07:08:44;11.20;;;5.72;;
83288;SDS011;73193;50.866;5.420;2024-01-15T07:10:16;12.23;;;5.22;;
83288;SDS011;73193;50.866;5.420;2024-01-15T07:11:47;13.57;;;6.07;;
83288;SDS011;73193;50.866;5.420;2024-01-15T07:13:17;9.68;;;5.18;;
83288;SDS011;73193;50.866;5.420;2024-01-15T07:14:48;8.60;;;4.25;;
83288;SDS011;73193;50.866;5.420;2024-01-15T07:16:19;12.88;;;4.68;;
83288;SDS011;73193;50.866;5.420;2024-01-15T07:17:49;12.35;;;5.68;;
83288;SDS011;73193;50.866;5.420;2024-01-15T07:19:20;11.25;;;5.43;;
83288;SDS011;73193;50.866;5.420;2024-01-15T07:20:51;9.75;;;4.97;;
83288;SDS011;73193;50.866;5.420;2024-01-15T07:22:21;6.25;;;3.45;;
83288;SDS011;73193;50.866;5.420;2024-01-15T07:23:52;7.93;;;3.95;;
83288;SDS011;73193;50.866;5.420;2024-01-15T07:25:23;9.55;;;4.55;;
83288;SDS011;73193;50.866;5.420;2024-01-15T07:26:55;11.98;;;4.18;;
83288;SDS011;73193;50.866;5.420;2024-01-15T07:28:28;7.43;;;4.40;;
83288;SDS011;73193;50.866;5.420;2024-01-15T07:29:59;11.48;;;5.07;;
83288;SDS011;73193;50.866;5.420;2024-01-15T07:31:29;8.15;;;4.63;;
83288;SDS011;73193;50.866;5.420;2024-01-15T07:33:00;9.70;;;5.18;;
83288;SDS011;73193;50.866;5.420;2024-01-15T07:34:31;9.88;;;4.72;;
83288;SDS011;73193;50.866;5.420;2024-01-15T07:36:01;7.65;;;3.80;;
83288;SDS011;73193;50.866;5.420;2024-01-15T07:37:33;6.75;;;3.95;;
83288;SDS011;73193;50.866;5.420;2024-01-15T07:39:03;8.35;;;3.97;;
83288;SDS011;73193;50.866;5.420;2024-01-15T07:40:34;10.55;;;4.20;;
83288;SDS011;73193;50.866;5.420;2024-01-15T07:42:05;10.70;;;4.78;;
83288;SDS011;73193;50.866;5.420;2024-01-15T07:43:36;10.02;;;4.35;;
83288;SDS011;73193;50.866;5.420;2024-01-15T07:45:06;5.53;;;2.38;;
83288;SDS011;73193;50.866;5.420;2024-01-15T07:46:37;6.22;;;3.28;;
83288;SDS011;73193;50.866;5.420;2024-01-15T07:48:09;9.07;;;4.05;;
83288;SDS011;73193;50.866;5.420;2024-01-15T07:49:39;7.30;;;4.00;;
83288;SDS011;73193;50.866;5.420;2024-01-15T07:51:10;9.18;;;4.63;;
83288;SDS011;73193;50.866;5.420;2024-01-15T07:52:41;8.23;;;4.40;;
83288;SDS011;73193;50.866;5.420;2024-01-15T07:54:14;7.65;;;4.28;;
83288;SDS011;73193;50.866;5.420;2024-01-15T07:55:45;8.05;;;3.70;;
83288;SDS011;73193;50.866;5.420;2024-01-15T07:57:16;9.52;;;4.60;;
83288;SDS011;73193;50.866;5.420;2024-01-15T07:58:46;8.52;;;4.63;;
83288;SDS011;73193;50.866;5.420;2024-01-15T08:00:17;9.05;;;4.40;;
83288;SDS011;73193;50.866;5.420;2024-01-15T08:01:48;8.55;;;4.00;;
83288;SDS011;73193;50.866;5.420;2024-01-15T08:03:18;7.60;;;4.10;;
83288;SDS011;73193;50.866;5.420;2024-01-15T08:04:49;7.57;;;4.05;;
83288;SDS011;73193;50.866;5.420;2024-01-15T08:06:20;9.18;;;4.07;;
83288;SDS011;73193;50.866;5.420;2024-01-15T08:07:51;7.72;;;3.72;;
83288;SDS011;73193;50.866;5.420;2024-01-15T08:09:21;5.05;;;3.20;;
83288;SDS011;73193;50.866;5.420;2024-01-15T08:10:52;10.68;;;4.00;;
83288;SDS011;73193;50.866;5.420;2024-01-15T08:12:23;6.75;;;3.33;;
83288;SDS011;73193;50.866;5.420;2024-01-15T08:13:54;5.90;;;2.67;;
83288;SDS011;73193;50.866;5.420;2024-01-15T08:15:24;10.52;;;3.28;;
83288;SDS011;73193;50.866;5.420;2024-01-15T08:16:55;6.55;;;3.38;;
83288;SDS011;73193;50.866;5.420;2024-01-15T08:18:25;5.40;;;2.83;;
83288;SDS011;73193;50.866;5.420;2024-01-15T08:19:56;6.57;;;2.80;;
83288;SDS011;73193;50.866;5.420;2024-01-15T08:21:27;3.72;;;1.88;;
83288;SDS011;73193;50.866;5.420;2024-01-15T08:23:00;7.18;;;3.65;;
83288;SDS011;73193;50.866;5.420;2024-01-15T08:24:30;7.05;;;2.50;;
83288;SDS011;73193;50.866;5.420;2024-01-15T08:26:01;6.95;;;2.80;;
83288;SDS011;73193;50.866;5.420;2024-01-15T08:27:32;7.10;;;2.22;;
83288;SDS011;73193;50.866;5.420;2024-01-15T08:29:04;4.50;;;2.20;;
83288;SDS011;73193;50.866;5.420;2024-01-15T08:30:34;5.38;;;2.42;;
83288;SDS011;73193;50.866;5.420;2024-01-15T08:32:05;4.72;;;2.28;;
83288;SDS011;73193;50.866;5.420;2024-01-15T08:33:36;4.28;;;2.30;;
83288;SDS011;73193;50.866;5.420;2024-01-15T08:35:06;5.90;;;2.35;;
83288;SDS011;73193;50.866;5.420;2024-01-15T08:36:37;6.93;;;1.90;;
83288;SDS011;73193;50.866;5.420;2024-01-15T08:38:08;3.97;;;1.98;;
83288;SDS011;73193;50.866;5.420;2024-01-15T08:39:38;3.80;;;1.75;;
83288;SDS011;73193;50.866;5.420;2024-01-15T08:41:09;6.28;;;2.47;;
83288;SDS011;73193;50.866;5.420;2024-01-15T08:42:40;3.83;;;1.92;;
83288;SDS011;73193;50.866;5.420;2024-01-15T08:44:10;5.82;;;2.30;;
83288;SDS011;73193;50.866;5.420;2024-01-15T08:45:41;3.88;;;2.38;;
83288;SDS011;73193;50.866;5.420;2024-01-15T08:47:12;5.05;;;2.28;;
83288;SDS011;73193;50.866;5.420;2024-01-15T08:48:42;4.43;;;1.95;;
83288;SDS011;73193;50.866;5.420;2024-01-15T08:50:13;5.18;;;2.10;;
83288;SDS011;73193;50.866;5.420;2024-01-15T08:51:44;4.13;;;2.20;;
83288;SDS011;73193;50.866;5.420;2024-01-15T08:53:15;3.53;;;2.20;;
83288;SDS011;73193;50.866;5.420;2024-01-15T08:54:47;3.72;;;2.17;;
83288;SDS011;73193;50.866;5.420;2024-01-15T08:56:18;8.45;;;2.58;;
83288;SDS011;73193;50.866;5.420;2024-01-15T08:57:49;5.68;;;2.25;;
83288;SDS011;73193;50.866;5.420;2024-01-15T08:59:20;5.93;;;2.17;;
83288;SDS011;73193;50.866;5.420;2024-01-15T09:00:54;8.15;;;2.80;;
83288;SDS011;73193;50.866;5.420;2024-01-15T09:02:25;4.18;;;2.13;;
83288;SDS011;73193;50.866;5.420;2024-01-15T09:03:55;6.45;;;2.45;;